Latest Weather Observations for Yarram Airport

IDV60801

Issued at 11:02 pm EST Friday 31 July 2015 (issued every 30 minutes, with the page automatically refreshed every 10 minutes)

About weather observations | Map of weather stations | Latest weather observations for VIC | Other Formats
Station Details ID: 085151 Name: YARRAM AIRPORT Lat: -38.56 Lon: 146.75 Height: 17.9 m
Data from the previous 72 hours. | See also: Recent months at Yarram Airport
Date/Time
EST
Temp
°C
App
Temp
°C
Dew
Point
Rel
Hum
%
Delta-T
°C
Wind Press
QNH
hPa
Press
MSL
hPa
Rain
since 9 am
mm
Dir
 
Spd
km/h
Gust
km/h
Spd
kts
Gust
kts
31/11:00pm 3.5 -0.5 3.1 97 0.2 WNW 13 17 7 9 1013.6 1013.7 0.0
31/10:30pm 3.7 0.9 3.0 95 0.3 N 7 9 4 5 1013.7 1013.8 0.0
31/10:00pm 3.9 -0.1 2.9 93 0.4 NNE 13 17 7 9 1013.8 1013.9 0.0
31/09:30pm 4.8 1.0 3.9 94 0.4 NNE 13 15 7 8 1014.2 1014.3 0.0
31/09:00pm 5.3 1.3 4.7 96 0.3 NNE 15 17 8 9 1014.8 1014.9 0.0
31/08:30pm 4.0 -0.2 3.6 97 0.2 NNE 15 17 8 9 1015.3 1015.4 0.0
31/08:00pm 2.8 -0.5 2.2 96 0.2 NE 9 11 5 6 1015.6 1015.7 0.0
31/07:30pm 2.5 -0.6 1.5 93 0.4 NNE 7 9 4 5 1016.1 1016.2 0.0
31/07:00pm 4.4 2.9 3.2 92 0.5 CALM 0 0 0 0 1016.2 1016.3 0.0
31/06:30pm 4.5 1.8 2.5 87 0.8 N 6 7 3 4 1016.1 1016.2 0.0
31/06:00pm 6.7 4.0 2.8 76 1.6 N 6 9 3 5 1015.7 1015.8 0.0
31/05:30pm 7.9 5.6 2.8 70 2.1 ENE 4 11 2 6 1015.6 1015.7 0.0
31/05:00pm 11.1 9.8 4.1 62 3.1 CALM 0 0 0 0 1015.7 1015.8 0.0
31/04:30pm 11.5 10.1 3.5 58 3.5 CALM 0 0 0 0 1015.7 1015.8 0.0
31/04:00pm 13.1 11.3 3.7 53 4.2 NW 2 7 1 4 1016.3 1016.4 0.0
31/03:30pm 12.6 9.4 3.0 52 4.2 N 9 11 5 6 1016.4 1016.5 0.0
31/03:00pm 12.6 9.1 3.5 54 4.1 NW 11 15 6 8 1017.0 1017.1 0.0
31/02:30pm 12.9 9.6 4.6 57 3.8 NW 11 19 6 10 1017.1 1017.2 0.0
31/02:00pm 11.9 8.0 3.4 56 3.8 WNW 13 17 7 9 1017.4 1017.5 0.0
31/01:30pm 11.5 7.4 4.5 62 3.2 WNW 15 20 8 11 1018.1 1018.2 0.0
31/01:00pm 11.0 5.9 3.3 59 3.4 W 19 24 10 13 1018.5 1018.6 0.0
31/12:30pm 12.1 8.6 5.3 63 3.1 WNW 13 20 7 11 1018.9 1019.0 0.0
31/12:00pm 11.7 7.4 5.3 65 2.9 WNW 17 22 9 12 1019.7 1019.8 0.0
31/11:30am 11.3 6.7 5.6 68 2.6 WNW 19 26 10 14 1020.0 1020.1 0.0
31/11:00am 11.5 7.0 6.8 73 2.2 WNW 20 28 11 15 1020.3 1020.4 0.0
31/10:30am 10.6 5.5 6.2 74 2.0 WNW 22 30 12 16 1020.4 1020.5 0.0
31/10:00am 10.3 5.7 6.3 76 1.9 WNW 20 26 11 14 1020.2 1020.3 0.0
31/09:30am 9.1 4.6 6.0 81 1.4 WNW 19 24 10 13 1020.2 1020.3 0.0
31/09:00am 8.7 5.0 6.5 86 1.0 NW 15 20 8 11 1020.1 1020.2 0.4
31/08:30am 7.9 4.5 6.0 88 0.9 NW 13 15 7 8 1019.9 1020.0 0.4
31/08:00am 6.0 3.1 4.8 92 0.5 NNW 9 11 5 6 1019.5 1019.6 0.4
31/07:30am 5.5 3.5 4.6 94 0.4 WNW 4 9 2 5 1019.4 1019.5 0.4
31/07:00am 5.5 2.2 4.3 92 0.5 WNW 11 15 6 8 1019.0 1019.1 0.4
31/06:30am 6.1 2.4 4.6 90 0.6 W 13 20 7 11 1018.6 1018.7 0.4
31/06:00am 5.8 2.1 4.3 90 0.6 WNW 13 17 7 9 1018.2 1018.3 0.4
31/05:30am 5.6 1.5 4.1 90 0.6 WNW 15 17 8 9 1018.1 1018.2 0.4
31/05:00am 5.6 1.9 4.2 91 0.6 WNW 13 15 7 8 1017.7 1017.8 0.4
31/04:30am 5.8 1.3 4.4 91 0.6 WNW 17 19 9 10 1017.5 1017.6 0.4
31/04:00am 6.0 2.0 4.8 92 0.5 WNW 15 17 8 9 1017.4 1017.5 0.4
31/03:30am 6.4 2.0 4.9 90 0.7 WNW 17 19 9 10 1017.1 1017.2 0.4
31/03:00am 7.3 3.0 5.3 87 0.9 WNW 17 20 9 11 1017.3 1017.4 0.4
31/02:30am 7.5 3.3 5.5 87 0.9 NW 17 20 9 11 1017.0 1017.1 0.4
31/02:00am 7.9 3.3 5.4 84 1.1 WNW 19 24 10 13 1016.9 1017.0 0.4
31/01:30am 8.0 3.4 5.8 86 1.0 WNW 19 24 10 13 1016.5 1016.6 0.4
31/01:00am 8.3 3.6 6.1 86 1.0 WNW 20 28 11 15 1016.2 1016.3 0.4
31/12:30am 8.3 2.1 6.3 87 0.9 WNW 28 41 15 22 1015.8 1015.9 0.4
31/12:00am 8.9 3.0 6.0 82 1.3 W 26 37 14 20 1015.6 1015.7 0.4
 
Date/Time
EST
Temp
°C
App
Temp
°C
Dew
Point
Rel
Hum
%
Delta-T
°C
Wind Press
QNH
hPa
Press
MSL
hPa
Rain
since 9 am
mm
Dir
 
Spd
km/h
Gust
km/h
Spd
kts
Gust
kts
30/11:30pm 9.1 3.3 6.4 83 1.2 W 26 37 14 20 1015.1 1015.2 0.4
30/11:00pm 8.7 1.6 5.4 80 1.5 W 32 44 17 24 1014.8 1014.9 0.4
30/10:31pm 9.4 2.1 7.3 87 1.0 W 35 57 19 31 1014.5 1014.6 0.0
30/10:30pm 9.8 2.7 7.9 88 0.9 W 35 50 19 27 1014.5 1014.6 0.0
30/10:29pm 9.9 2.7 7.8 87 1.0 W 35 50 19 27 1014.5 1014.6 0.0
30/10:09pm 10.6 2.8 6.7 77 1.8 WNW 37 56 20 30 1013.6 1013.7 0.0
30/10:00pm 10.7 2.1 6.6 76 1.9 WNW 41 56 22 30 1013.4 1013.5 0.0
30/09:30pm 11.8 3.8 5.9 67 2.8 WNW 37 56 20 30 1012.6 1012.7 0.0
30/09:08pm 12.0 4.2 5.0 62 3.2 NW 35 54 19 29 1012.3 1012.4 0.0
30/09:00pm 11.9 4.6 4.6 61 3.3 NW 32 43 17 23 1012.1 1012.2 0.0
30/08:30pm 12.0 5.0 4.0 58 3.6 NW 30 44 16 24 1011.8 1011.9 0.0
30/08:00pm 12.3 4.8 3.3 54 4.0 NW 32 50 17 27 1011.1 1011.2 0.0
30/07:57pm 12.3 4.8 3.3 54 4.0 NW 32 50 17 27 1011.1 1011.2 0.0
30/07:30pm 12.2 6.1 2.9 53 4.1 NW 24 37 13 20 1011.1 1011.2 0.0
30/07:09pm 12.5 4.7 2.9 52 4.2 NW 33 52 18 28 1010.7 1010.8 0.0
30/07:00pm 12.6 4.6 1.9 48 4.6 NW 33 44 18 24 1010.5 1010.6 0.0
30/06:37pm 13.0 5.2 1.4 45 5.0 NW 32 50 17 27 1010.3 1010.4 0.0
30/06:30pm 12.9 6.0 2.5 49 4.6 NW 28 41 15 22 1010.3 1010.4 0.0
30/06:00pm 13.1 6.6 2.4 48 4.7 NW 26 37 14 20 1009.7 1009.8 0.0
30/05:30pm 12.8 6.7 2.6 50 4.5 NNW 24 35 13 19 1009.7 1009.8 0.0
30/05:00pm 12.9 5.2 2.5 49 4.6 NW 32 44 17 24 1010.5 1010.6 0.0
30/04:49pm 12.8 5.9 2.6 50 4.5 NNW 28 46 15 25 1010.8 1010.9 0.0
30/04:30pm 12.9 6.5 3.0 51 4.4 NW 26 39 14 21 1010.9 1011.0 0.0
30/04:00pm 13.1 8.8 3.5 52 4.3 NW 15 28 8 15 1011.7 1011.8 0.0
30/03:30pm 12.3 9.2 3.5 55 3.9 N 9 20 5 11 1011.8 1011.9 0.0
30/03:00pm 11.8 8.5 4.5 61 3.3 NE 11 17 6 9 1012.0 1012.1 0.0
30/02:30pm 12.3 7.9 4.5 59 3.5 NNE 17 24 9 13 1012.6 1012.7 0.0
30/02:00pm 12.0 7.0 4.7 61 3.3 N 20 28 11 15 1013.2 1013.3 0.0
30/01:30pm 12.3 7.9 5.0 61 3.4 N 17 24 9 13 1014.0 1014.1 0.0
30/01:00pm 13.1 8.3 4.8 57 3.8 N 19 26 10 14 1014.2 1014.3 0.0
30/12:30pm 13.1 8.1 4.5 56 3.9 N 20 26 11 14 1015.1 1015.2 0.0
30/12:00pm 12.9 7.9 4.6 57 3.8 N 20 28 11 15 1016.1 1016.2 0.0
30/11:30am 13.0 7.8 3.7 53 4.2 N 20 28 11 15 1017.0 1017.1 0.0
30/11:00am 13.2 9.6 4.9 57 3.8 N 13 19 7 10 1018.1 1018.2 0.0
30/10:30am 12.2 8.1 4.4 59 3.5 N 15 19 8 10 1018.6 1018.7 0.0
30/10:00am 11.3 6.8 4.3 62 3.1 N 17 20 9 11 1019.0 1019.1 0.0
30/09:30am 10.4 7.3 5.6 72 2.2 NNE 11 15 6 8 1019.5 1019.6 0.0
30/09:00am 8.6 5.0 5.0 78 1.6 NE 13 17 7 9 1019.7 1019.8 0.0
30/08:30am 4.9 1.9 4.0 94 0.4 NE 9 11 5 6 1020.1 1020.2 0.0
30/08:00am 1.7 -1.8 1.1 96 0.2 NE 9 11 5 6 1020.5 1020.6 0.0
30/07:30am 1.0 -2.6 0.6 97 0.1 NE 9 11 5 6 1020.8 1020.9 0.0
30/07:00am 1.0 -2.2 0.7 98 0.1 N 7 9 4 5 1021.1 1021.2 0.0
30/06:30am 0.6 -3.8 0.2 97 0.1 NNE 13 15 7 8 1021.3 1021.4 0.0
30/06:00am 0.4 -2.0 -0.2 96 0.2 N 2 7 1 4 1021.6 1021.7 0.0
30/05:30am 0.4 -1.6 -0.4 94 0.3 CALM 0 7 0 4 1022.1 1022.2 0.0
30/05:00am 1.1 -2.2 0.2 94 0.3 NE 7 9 4 5 1022.2 1022.3 0.0
30/04:30am 2.0 -1.1 1.6 97 0.2 N 7 7 4 4 1022.5 1022.6 0.0
30/04:00am 1.6 -1.9 1.3 98 0.1 NNE 9 11 5 6 1022.7 1022.8 0.0
30/03:30am 1.8 -2.8 1.5 98 0.1 NNE 15 17 8 9 1022.9 1023.0 0.0
30/03:00am 2.1 -2.0 2.0 99 0.0 NNE 13 17 7 9 1023.7 1023.8 0.0
30/02:30am 2.0 -1.4 1.6 97 0.2 NNE 9 11 5 6 1024.5 1024.6 0.0
30/02:00am 2.5 -0.9 2.1 97 0.2 NNE 9 13 5 7 1024.9 1025.0 0.0
30/01:30am 3.0 -0.7 2.4 96 0.2 NNE 11 13 6 7 1025.3 1025.4 0.0
30/01:00am 3.9 0.7 3.3 96 0.2 NNE 9 13 5 7 1025.7 1025.8 0.0
30/12:30am 4.8 1.8 3.9 94 0.4 NNE 9 11 5 6 1026.1 1026.2 0.0
30/12:00am 5.6 2.7 4.7 94 0.4 NNE 9 11 5 6 1026.6 1026.7 0.0
 
Date/Time
EST
Temp
°C
App
Temp
°C
Dew
Point
Rel
Hum
%
Delta-T
°C
Wind Press
QNH
hPa
Press
MSL
hPa
Rain
since 9 am
mm
Dir
 
Spd
km/h
Gust
km/h
Spd
kts
Gust
kts
29/11:30pm 5.7 3.0 3.9 88 0.8 NE 7 9 4 5 1026.8 1026.9 0.0
29/11:00pm 6.5 3.6 4.8 89 0.7 ENE 9 9 5 5 1026.9 1027.0 0.0
29/10:30pm 6.0 3.4 4.0 87 0.8 NNW 7 11 4 6 1027.4 1027.4 0.0
29/10:00pm 7.1 4.2 4.8 85 1.0 NW 9 11 5 6 1027.6 1027.6 0.0
29/09:30pm 8.3 5.6 5.6 83 1.2 NNW 9 11 5 6 1027.8 1027.8 0.0
29/09:00pm 8.1 4.6 5.6 84 1.1 NNW 13 15 7 8 1028.1 1028.1 0.0
29/08:30pm 7.7 5.0 5.8 88 0.9 N 9 13 5 7 1027.7 1027.7 0.0
29/08:00pm 7.9 5.5 6.8 93 0.5 N 9 11 5 6 1028.1 1028.1 0.0
29/07:30pm 7.4 6.6 6.3 93 0.5 CALM 0 0 0 0 1028.2 1028.2 0.0
29/07:00pm 7.4 5.2 6.0 91 0.6 N 7 9 4 5 1028.1 1028.1 0.0
29/06:30pm 7.1 4.4 5.6 90 0.7 NNE 9 9 5 5 1028.2 1028.2 0.0
29/06:00pm 7.5 5.2 5.6 88 0.8 NE 7 11 4 6 1027.9 1027.9 0.0
29/05:30pm 7.8 5.4 5.3 84 1.1 NNE 7 11 4 6 1027.8 1027.8 0.0
29/05:00pm 10.2 7.7 6.7 79 1.6 WSW 9 11 5 6 1028.0 1028.0 0.0
29/04:30pm 11.2 9.4 7.1 76 2.0 SW 6 7 3 4 1028.1 1028.1 0.0
29/04:00pm 12.2 9.4 6.9 70 2.5 W 11 15 6 8 1028.5 1028.5 0.0
29/03:30pm 12.2 10.0 6.3 67 2.8 W 7 11 4 6 1028.7 1028.7 0.0
29/03:00pm 12.3 9.8 6.4 67 2.8 W 9 13 5 7 1028.8 1028.8 0.0
29/02:30pm 12.5 9.3 5.2 61 3.4 WNW 11 15 6 8 1028.9 1028.9 0.0
29/02:00pm 12.4 8.9 5.6 63 3.1 WNW 13 19 7 10 1029.2 1029.2 0.0
29/01:30pm 12.5 7.9 5.4 62 3.3 WNW 19 26 10 14 1029.7 1029.7 0.0
29/01:00pm 12.6 8.1 4.3 57 3.7 WNW 17 24 9 13 1030.3 1030.3 0.0
29/12:30pm 12.7 7.7 4.4 57 3.8 WNW 20 26 11 14 1030.8 1030.8 0.0
29/12:00pm 13.2 8.6 5.4 59 3.6 WNW 19 32 10 17 1031.1 1031.1 0.0
29/11:30am 12.5 8.5 6.8 68 2.7 WNW 17 22 9 12 1031.8 1031.8 0.0
29/11:00am 12.3 9.2 7.2 71 2.4 NW 13 17 7 9 1032.3 1032.3 0.0
29/10:30am 12.0 8.7 6.5 69 2.6 WNW 13 19 7 10 1032.5 1032.5 0.0
29/10:00am 11.9 9.1 6.8 71 2.4 NNW 11 17 6 9 1032.8 1032.8 0.0
29/09:30am 10.8 9.3 8.4 85 1.2 NW 6 11 3 6 1033.0 1033.0 0.0
29/09:00am 9.6 9.1 8.0 90 0.8 CALM 0 0 0 0 1032.9 1032.9 0.0
29/08:30am 9.2 7.9 7.6 90 0.8 NNW 4 7 2 4 1032.9 1032.9 0.0
29/08:00am 7.5 5.5 6.4 93 0.5 NNW 6 9 3 5 1032.9 1032.9 0.0
29/07:30am 7.2 4.6 6.0 92 0.5 NW 9 11 5 6 1032.6 1032.6 0.0
29/07:00am 7.7 4.8 6.3 91 0.6 NW 11 13 6 7 1032.7 1032.7 0.0
29/06:30am 8.2 5.0 7.0 92 0.6 NW 13 15 7 8 1032.4 1032.4 0.0
29/06:00am 7.5 5.1 7.2 98 0.1 NW 9 11 5 6 1032.2 1032.2 0.0
29/05:30am 7.1 4.7 7.0 99 0.0 WNW 9 11 5 6 1032.1 1032.1 0.0
29/05:00am 6.7 4.6 6.6 99 0.0 NNW 7 9 4 5 1031.8 1031.8 0.0
29/04:30am 6.6 4.1 6.6 100 0.0 NNW 9 11 5 6 1032.2 1032.2 0.0
29/04:00am 5.9 3.8 5.9 100 0.0 NNW 6 7 3 4 1032.3 1032.3 0.0
29/03:30am 5.7 3.6 5.7 100 0.0 N 6 9 3 5 1032.4 1032.4 0.0
29/03:00am 5.4 2.7 5.4 100 0.0 NNE 9 13 5 7 1032.4 1032.4 0.0
29/02:30am 4.4 1.8 4.1 98 0.1 NNE 7 9 4 5 1032.5 1032.5 0.0
29/02:00am 3.9 0.7 3.3 96 0.2 N 9 9 5 5 1032.5 1032.5 0.0
29/01:30am 6.1 3.8 5.7 97 0.2 NNW 7 9 4 5 1032.9 1032.9 0.0
29/01:00am 7.3 4.4 6.7 96 0.3 N 11 11 6 6 1032.9 1032.9 0.0
29/12:30am 7.9 5.1 7.1 95 0.4 NW 11 13 6 7 1032.9 1032.9 0.0
29/12:00am 5.6 2.7 4.9 95 0.3 NNW 9 13 5 7 1033.2 1033.2 0.0
 
Date/Time
EST
Temp
°C
App
Temp
°C
Dew
Point
Rel
Hum
%
Delta-T
°C
Wind Press
QNH
hPa
Press
MSL
hPa
Rain
since 9 am
mm
Dir
 
Spd
km/h
Gust
km/h
Spd
kts
Gust
kts
28/11:30pm 7.0 4.4 6.3 95 0.3 NNW 9 13 5 7 1033.4 1033.4 0.0

Other Formats:

Comma delimited format used in spreadsheet applications
http://www.bom.gov.au/fwo/IDV60801/IDV60801.95890.axf

JavaScript Object Notation format (JSON) in row-major order
http://www.bom.gov.au/fwo/IDV60801/IDV60801.95890.json